PWSweather.com
Personal Weather Stations
Station Observations

YeovilGB

Lat: 50.949, Lon: -2.627

Elevation: 70

Station Type: Vantage Pro

http://www.yeovil-weather.me.uk/

High Low Average
Temperature 57.4°F14.1°C 36.8°F2.7°C 47.8°F8.8°C
Dew Point 47.2°F8.4°C 34.0°F1.1°C 41.6°F5.3°C
Winds 16.1 mph 25.9 kmh Calm Calm 7.0 mph SSW11.3 kmh SSW
Wind Gusts 26.5 mph42.6 kmh -- 11.0 mph17.7 kmh
Humidity 94% 60% 80%
Pressure 29.87 in1011.5 mb 29.69 in1005.4 mb -
Precipitation 0.03 in0.8 mm - -
Hour Temp Dew Point Humidity Winds Wind Gusts Pressure Precip Precip Rate Daily Precip Total
12:00 AM 41.2°F5.1°C 35.8°F2.1°C 81% Calm Calm -- 29.87 in1011.5 mb - 0.00 in0.0 mm 0.00 in0.0 mm
12:10 AM 40.9°F4.9°C 35.5°F1.9°C 81% Calm Calm -- 29.87 in1011.5 mb - 0.00 in0.0 mm 0.00 in0.0 mm
12:20 AM 40.7°F4.8°C 35.6°F2.0°C 82% Calm Calm -- 29.87 in1011.5 mb - 0.00 in0.0 mm 0.00 in0.0 mm
12:30 AM 40.5°F4.7°C 35.4°F1.9°C 82% Calm Calm -- 29.87 in1011.5 mb - 0.00 in0.0 mm 0.00 in0.0 mm
12:40 AM 40.3°F4.6°C 35.3°F1.8°C 82% Calm Calm -- 29.87 in1011.5 mb - 0.00 in0.0 mm 0.00 in0.0 mm
12:50 AM 40.1°F4.5°C 35.4°F1.9°C 83% Calm Calm -- 29.87 in1011.5 mb - 0.00 in0.0 mm 0.00 in0.0 mm
01:00 AM 40.0°F4.4°C 35.3°F1.8°C 83% Calm Calm -- 29.87 in1011.5 mb - 0.00 in0.0 mm 0.00 in0.0 mm
01:10 AM 39.8°F4.3°C 35.4°F1.9°C 84% Calm Calm -- 29.87 in1011.5 mb - 0.00 in0.0 mm 0.00 in0.0 mm
01:20 AM 39.6°F4.2°C 35.2°F1.8°C 84% Calm Calm -- 29.87 in1011.5 mb - 0.00 in0.0 mm 0.00 in0.0 mm
01:30 AM 39.3°F4.1°C 34.9°F1.6°C 84% Calm Calm -- 29.87 in1011.5 mb - 0.00 in0.0 mm 0.00 in0.0 mm
01:40 AM 39.0°F3.9°C 34.9°F1.6°C 85% Calm Calm -- 29.87 in1011.5 mb - 0.00 in0.0 mm 0.00 in0.0 mm
01:50 AM 38.8°F3.8°C 35.0°F1.7°C 86% Calm Calm -- 29.87 in1011.5 mb - 0.00 in0.0 mm 0.00 in0.0 mm
02:00 AM 38.6°F3.7°C 34.8°F1.6°C 86% Calm Calm -- 29.87 in1011.5 mb - 0.00 in0.0 mm 0.00 in0.0 mm
02:10 AM 38.6°F3.7°C 35.1°F1.7°C 87% Calm Calm -- 29.86 in1011.2 mb - 0.00 in0.0 mm 0.00 in0.0 mm
02:20 AM 38.4°F3.6°C 34.9°F1.6°C 87% Calm Calm -- 29.87 in1011.5 mb - 0.00 in0.0 mm 0.00 in0.0 mm
02:30 AM 38.0°F3.3°C 34.5°F1.4°C 87% Calm Calm -- 29.87 in1011.5 mb - 0.00 in0.0 mm 0.00 in0.0 mm
02:40 AM 37.6°F3.1°C 34.1°F1.2°C 87% Calm Calm -- 29.87 in1011.5 mb - 0.00 in0.0 mm 0.00 in0.0 mm
02:50 AM 37.4°F3.0°C 34.2°F1.2°C 88% Calm Calm -- 29.86 in1011.2 mb - 0.00 in0.0 mm 0.00 in0.0 mm
03:00 AM 37.4°F3.0°C 34.5°F1.4°C 89% Calm Calm -- 29.86 in1011.2 mb - 0.00 in0.0 mm 0.00 in0.0 mm
03:10 AM 37.3°F2.9°C 34.4°F1.3°C 89% Calm Calm -- 29.86 in1011.2 mb - 0.00 in0.0 mm 0.00 in0.0 mm
03:20 AM 37.1°F2.8°C 34.2°F1.2°C 89% Calm Calm -- 29.86 in1011.2 mb - 0.00 in0.0 mm 0.00 in0.0 mm
03:30 AM 37.0°F2.8°C 34.0°F1.1°C 89% Calm Calm -- 29.86 in1011.2 mb - 0.00 in0.0 mm 0.00 in0.0 mm
03:40 AM 37.2°F2.9°C 34.5°F1.4°C 90% Calm Calm -- 29.86 in1011.2 mb - 0.00 in0.0 mm 0.00 in0.0 mm
03:50 AM 37.4°F3.0°C 34.7°F1.5°C 90% Calm Calm -- 29.86 in1011.2 mb - 0.00 in0.0 mm 0.00 in0.0 mm
04:00 AM 37.4°F3.0°C 34.7°F1.5°C 90% Calm Calm -- 29.86 in1011.2 mb - 0.00 in0.0 mm 0.00 in0.0 mm
04:10 AM 37.4°F3.0°C 34.7°F1.5°C 90% Calm Calm -- 29.86 in1011.2 mb - 0.00 in0.0 mm 0.00 in0.0 mm
04:20 AM 37.6°F3.1°C 35.2°F1.8°C 91% Calm Calm -- 29.86 in1011.2 mb - 0.00 in0.0 mm 0.00 in0.0 mm
04:30 AM 37.7°F3.2°C 35.3°F1.8°C 91% Calm Calm -- 29.86 in1011.2 mb - 0.00 in0.0 mm 0.00 in0.0 mm
04:40 AM 37.6°F3.1°C 35.2°F1.8°C 91% Calm Calm -- 29.86 in1011.2 mb - 0.00 in0.0 mm 0.00 in0.0 mm
04:50 AM 37.3°F2.9°C 34.7°F1.5°C 90% Calm Calm -- 29.86 in1011.2 mb - 0.00 in0.0 mm 0.00 in0.0 mm
05:00 AM 37.0°F2.8°C 34.3°F1.3°C 90% Calm Calm -- 29.86 in1011.2 mb - 0.00 in0.0 mm 0.00 in0.0 mm
05:10 AM 36.8°F2.7°C 34.1°F1.2°C 90% Calm Calm -- 29.86 in1011.2 mb - 0.00 in0.0 mm 0.00 in0.0 mm
05:20 AM 36.8°F2.7°C 34.4°F1.3°C 91% Calm Calm -- 29.86 in1011.2 mb - 0.00 in0.0 mm 0.00 in0.0 mm
05:30 AM 36.8°F2.7°C 34.7°F1.5°C 92% Calm Calm -- 29.86 in1011.2 mb - 0.00 in0.0 mm 0.00 in0.0 mm
05:40 AM 37.1°F2.8°C 35.0°F1.7°C 92% Calm Calm -- 29.86 in1011.2 mb - 0.00 in0.0 mm 0.00 in0.0 mm
05:50 AM 37.4°F3.0°C 35.6°F2.0°C 93% Calm Calm -- 29.86 in1011.2 mb - 0.00 in0.0 mm 0.00 in0.0 mm
06:00 AM 38.2°F3.4°C 36.6°F2.6°C 94% Calm Calm -- 29.86 in1011.2 mb - 0.00 in0.0 mm 0.00 in0.0 mm
06:10 AM 38.9°F3.8°C 37.3°F2.9°C 94% Calm Calm -- 29.86 in1011.2 mb - 0.00 in0.0 mm 0.00 in0.0 mm
06:20 AM 39.2°F4.0°C 37.4°F3.0°C 93% Calm Calm -- 29.86 in1011.2 mb - 0.00 in0.0 mm 0.00 in0.0 mm
06:30 AM 39.6°F4.2°C 38.0°F3.3°C 94% Calm Calm -- 29.86 in1011.2 mb - 0.00 in0.0 mm 0.00 in0.0 mm
06:40 AM 40.3°F4.6°C 38.7°F3.7°C 94% Calm Calm -- 29.86 in1011.2 mb - 0.00 in0.0 mm 0.00 in0.0 mm
06:50 AM 41.1°F5.1°C 39.5°F4.2°C 94% 1.2 mph S1.9 kmh S 3.5 mph5.6 kmh 29.86 in1011.2 mb - 0.00 in0.0 mm 0.00 in0.0 mm
07:00 AM 42.3°F5.7°C 40.4°F4.7°C 93% 1.2 mph SW1.9 kmh SW 4.6 mph7.4 kmh 29.86 in1011.2 mb - 0.00 in0.0 mm 0.00 in0.0 mm
07:10 AM 43.6°F6.4°C 41.4°F5.2°C 92% 1.2 mph SSW1.9 kmh SSW 4.6 mph7.4 kmh 29.86 in1011.2 mb - 0.00 in0.0 mm 0.00 in0.0 mm
07:20 AM 44.8°F7.1°C 42.3°F5.7°C 91% 3.5 mph SW5.6 kmh SW 9.2 mph14.8 kmh 29.86 in1011.2 mb - 0.00 in0.0 mm 0.00 in0.0 mm
07:30 AM 46.0°F7.8°C 43.0°F6.1°C 89% 3.5 mph SW5.6 kmh SW 8.1 mph13.0 kmh 29.86 in1011.2 mb - 0.00 in0.0 mm 0.00 in0.0 mm
07:40 AM 47.5°F8.6°C 43.5°F6.4°C 86% 5.8 mph S9.3 kmh S 9.2 mph14.8 kmh 29.86 in1011.2 mb - 0.00 in0.0 mm 0.00 in0.0 mm
07:50 AM 49.1°F9.5°C 44.1°F6.7°C 83% 2.3 mph SSW3.7 kmh SSW 8.1 mph13.0 kmh 29.86 in1011.2 mb - 0.00 in0.0 mm 0.00 in0.0 mm
08:00 AM 50.2°F10.1°C 44.3°F6.8°C 80% 4.6 mph SSW7.4 kmh SSW 10.4 mph16.7 kmh 29.86 in1011.2 mb - 0.00 in0.0 mm 0.00 in0.0 mm
08:10 AM 50.9°F10.5°C 44.3°F6.8°C 78% 4.6 mph SW7.4 kmh SW 8.1 mph13.0 kmh 29.85 in1010.8 mb - 0.00 in0.0 mm 0.00 in0.0 mm
08:20 AM 51.6°F10.9°C 43.2°F6.2°C 73% 9.2 mph SW14.8 kmh SW 12.7 mph20.4 kmh 29.86 in1011.2 mb - 0.00 in0.0 mm 0.00 in0.0 mm
08:30 AM 52.4°F11.3°C 43.6°F6.4°C 72% 1.2 mph SW1.9 kmh SW 6.9 mph11.1 kmh 29.85 in1010.8 mb - 0.00 in0.0 mm 0.00 in0.0 mm
08:40 AM 53.4°F11.9°C 43.1°F6.2°C 68% 6.9 mph SW11.1 kmh SW 9.2 mph14.8 kmh 29.85 in1010.8 mb - 0.00 in0.0 mm 0.00 in0.0 mm
08:50 AM 53.7°F12.1°C 43.0°F6.1°C 67% 8.1 mph SW13.0 kmh SW 13.8 mph22.2 kmh 29.85 in1010.8 mb - 0.00 in0.0 mm 0.00 in0.0 mm
09:00 AM 54.2°F12.3°C 42.3°F5.7°C 64% 5.8 mph SW9.3 kmh SW 10.4 mph16.7 kmh 29.85 in1010.8 mb - 0.00 in0.0 mm 0.00 in0.0 mm
09:10 AM 53.7°F12.1°C 41.4°F5.2°C 63% 5.8 mph S9.3 kmh S 11.5 mph18.5 kmh 29.85 in1010.8 mb - 0.00 in0.0 mm 0.00 in0.0 mm
09:20 AM 53.0°F11.7°C 41.9°F5.5°C 66% 3.5 mph SW5.6 kmh SW 10.4 mph16.7 kmh 29.85 in1010.8 mb - 0.00 in0.0 mm 0.00 in0.0 mm
09:30 AM 53.6°F12.0°C 42.5°F5.8°C 66% 4.6 mph SSW7.4 kmh SSW 12.7 mph20.4 kmh 29.85 in1010.8 mb - 0.00 in0.0 mm 0.00 in0.0 mm
09:40 AM 54.9°F12.7°C 42.5°F5.8°C 63% 9.2 mph SSW14.8 kmh SSW 13.8 mph22.2 kmh 29.85 in1010.8 mb - 0.00 in0.0 mm 0.00 in0.0 mm
09:50 AM 55.9°F13.3°C 43.1°F6.2°C 62% 10.4 mph SW16.7 kmh SW 16.1 mph25.9 kmh 29.85 in1010.8 mb - 0.00 in0.0 mm 0.00 in0.0 mm
10:00 AM 56.9°F13.8°C 44.0°F6.7°C 62% 9.2 mph SSW14.8 kmh SSW 12.7 mph20.4 kmh 29.84 in1010.5 mb - 0.00 in0.0 mm 0.00 in0.0 mm
10:10 AM 56.9°F13.8°C 44.0°F6.7°C 62% 11.5 mph S18.5 kmh S 19.6 mph31.5 kmh 29.84 in1010.5 mb - 0.00 in0.0 mm 0.00 in0.0 mm
10:20 AM 56.9°F13.8°C 44.4°F6.9°C 63% 8.1 mph SW13.0 kmh SW 13.8 mph22.2 kmh 29.84 in1010.5 mb - 0.00 in0.0 mm 0.00 in0.0 mm
10:30 AM 57.1°F13.9°C 43.3°F6.3°C 60% 11.5 mph S18.5 kmh S 12.7 mph20.4 kmh 29.84 in1010.5 mb - 0.00 in0.0 mm 0.00 in0.0 mm
10:40 AM 57.4°F14.1°C 44.5°F6.9°C 62% 6.9 mph SW11.1 kmh SW 12.7 mph20.4 kmh 29.84 in1010.5 mb - 0.00 in0.0 mm 0.00 in0.0 mm
10:50 AM 56.1°F13.4°C 44.1°F6.7°C 64% 10.4 mph S16.7 kmh S 18.4 mph29.6 kmh 29.84 in1010.5 mb - 0.00 in0.0 mm 0.00 in0.0 mm
11:00 AM 55.3°F12.9°C 45.0°F7.2°C 68% 10.4 mph S16.7 kmh S 18.4 mph29.6 kmh 29.84 in1010.5 mb - 0.00 in0.0 mm 0.00 in0.0 mm
11:10 AM 53.9°F12.2°C 43.9°F6.6°C 69% 13.8 mph SSW22.2 kmh SSW 24.2 mph38.9 kmh 29.85 in1010.8 mb - 0.00 in0.0 mm 0.00 in0.0 mm
11:20 AM 51.2°F10.7°C 44.6°F7.0°C 78% 6.9 mph S11.1 kmh S 10.4 mph16.7 kmh 29.85 in1010.8 mb - 0.01 in0.3 mm 0.01 in0.3 mm
11:30 AM 50.5°F10.3°C 45.5°F7.5°C 83% 1.2 mph SSW1.9 kmh SSW 10.4 mph16.7 kmh 29.84 in1010.5 mb - 0.00 in0.0 mm 0.01 in0.3 mm
11:40 AM 51.4°F10.8°C 46.4°F8.0°C 83% 6.9 mph SSW11.1 kmh SSW 11.5 mph18.5 kmh 29.84 in1010.5 mb - 0.00 in0.0 mm 0.01 in0.3 mm
11:50 AM 52.9°F11.6°C 47.2°F8.4°C 81% 5.8 mph S9.3 kmh S 11.5 mph18.5 kmh 29.84 in1010.5 mb - 0.00 in0.0 mm 0.01 in0.3 mm
12:00 PM 53.4°F11.9°C 46.4°F8.0°C 77% 11.5 mph SSW18.5 kmh SSW 12.7 mph20.4 kmh 29.84 in1010.5 mb - 0.00 in0.0 mm 0.01 in0.3 mm
12:10 PM 53.9°F12.2°C 45.5°F7.5°C 73% 6.9 mph SSW11.1 kmh SSW 11.5 mph18.5 kmh 29.83 in1010.2 mb - 0.00 in0.0 mm 0.01 in0.3 mm
12:20 PM 54.9°F12.7°C 44.9°F7.2°C 69% 11.5 mph SSW18.5 kmh SSW 19.6 mph31.5 kmh 29.83 in1010.2 mb - 0.00 in0.0 mm 0.01 in0.3 mm
12:30 PM 55.0°F12.8°C 45.0°F7.2°C 69% 11.5 mph S18.5 kmh S 15.0 mph24.1 kmh 29.82 in1009.8 mb - 0.00 in0.0 mm 0.01 in0.3 mm
12:40 PM 54.7°F12.6°C 45.1°F7.3°C 70% 5.8 mph SSW9.3 kmh SSW 11.5 mph18.5 kmh 29.82 in1009.8 mb - 0.00 in0.0 mm 0.01 in0.3 mm
12:50 PM 54.6°F12.6°C 44.6°F7.0°C 69% 9.2 mph S14.8 kmh S 18.4 mph29.6 kmh 29.82 in1009.8 mb - 0.00 in0.0 mm 0.01 in0.3 mm
01:00 PM 54.2°F12.3°C 43.9°F6.6°C 68% 12.7 mph S20.4 kmh S 23.0 mph37.0 kmh 29.82 in1009.8 mb - 0.00 in0.0 mm 0.01 in0.3 mm
01:10 PM 54.1°F12.3°C 44.2°F6.8°C 69% 11.5 mph S18.5 kmh S 21.9 mph35.2 kmh 29.83 in1010.2 mb - 0.00 in0.0 mm 0.01 in0.3 mm
01:20 PM 54.0°F12.2°C 44.0°F6.7°C 69% 11.5 mph SSW18.5 kmh SSW 13.8 mph22.2 kmh 29.83 in1010.2 mb - 0.00 in0.0 mm 0.01 in0.3 mm
01:30 PM 54.9°F12.7°C 45.3°F7.4°C 70% 10.4 mph SSW16.7 kmh SSW 13.8 mph22.2 kmh 29.82 in1009.8 mb - 0.00 in0.0 mm 0.01 in0.3 mm
01:40 PM 56.0°F13.3°C 45.6°F7.6°C 68% 11.5 mph S18.5 kmh S 13.8 mph22.2 kmh 29.82 in1009.8 mb - 0.00 in0.0 mm 0.01 in0.3 mm
01:50 PM 55.7°F13.2°C 45.7°F7.6°C 69% 6.9 mph SSW11.1 kmh SSW 12.7 mph20.4 kmh 29.81 in1009.5 mb - 0.00 in0.0 mm 0.01 in0.3 mm
02:00 PM 55.1°F12.8°C 44.7°F7.1°C 68% 11.5 mph SSW18.5 kmh SSW 19.6 mph31.5 kmh 29.82 in1009.8 mb - 0.00 in0.0 mm 0.01 in0.3 mm
02:10 PM 55.1°F12.8°C 45.1°F7.3°C 69% 12.7 mph SSW20.4 kmh SSW 13.8 mph22.2 kmh 29.81 in1009.5 mb - 0.00 in0.0 mm 0.01 in0.3 mm
02:20 PM 55.6°F13.1°C 45.2°F7.3°C 68% 9.2 mph SSW14.8 kmh SSW 12.7 mph20.4 kmh 29.81 in1009.5 mb - 0.00 in0.0 mm 0.01 in0.3 mm
02:30 PM 55.8°F13.2°C 44.2°F6.8°C 65% 11.5 mph S18.5 kmh S 19.6 mph31.5 kmh 29.80 in1009.1 mb - 0.00 in0.0 mm 0.01 in0.3 mm
02:40 PM 55.9°F13.3°C 44.3°F6.8°C 65% 10.4 mph S16.7 kmh S 15.0 mph24.1 kmh 29.80 in1009.1 mb - 0.00 in0.0 mm 0.01 in0.3 mm
02:50 PM 56.1°F13.4°C 44.1°F6.7°C 64% 13.8 mph S22.2 kmh S 26.5 mph42.6 kmh 29.80 in1009.1 mb - 0.00 in0.0 mm 0.01 in0.3 mm
03:00 PM 55.7°F13.2°C 43.7°F6.5°C 64% 12.7 mph S20.4 kmh S 20.7 mph33.3 kmh 29.79 in1008.8 mb - 0.00 in0.0 mm 0.01 in0.3 mm
03:10 PM 55.6°F13.1°C 43.6°F6.4°C 64% 12.7 mph S20.4 kmh S 19.6 mph31.5 kmh 29.80 in1009.1 mb - 0.00 in0.0 mm 0.01 in0.3 mm
03:20 PM 55.4°F13.0°C 44.2°F6.8°C 66% 5.8 mph SSW9.3 kmh SSW 13.8 mph22.2 kmh 29.79 in1008.8 mb - 0.00 in0.0 mm 0.01 in0.3 mm
03:30 PM 55.1°F12.8°C 43.2°F6.2°C 64% 13.8 mph SSW22.2 kmh SSW 23.0 mph37.0 kmh 29.79 in1008.8 mb - 0.00 in0.0 mm 0.01 in0.3 mm
03:40 PM 54.5°F12.5°C 43.4°F6.3°C 66% 12.7 mph S20.4 kmh S 21.9 mph35.2 kmh 29.79 in1008.8 mb - 0.00 in0.0 mm 0.01 in0.3 mm
03:50 PM 54.1°F12.3°C 43.8°F6.6°C 68% 13.8 mph S22.2 kmh S 21.9 mph35.2 kmh 29.79 in1008.8 mb - 0.00 in0.0 mm 0.01 in0.3 mm
04:00 PM 54.1°F12.3°C 43.8°F6.6°C 68% 16.1 mph SSW25.9 kmh SSW 26.5 mph42.6 kmh 29.78 in1008.5 mb - 0.00 in0.0 mm 0.01 in0.3 mm
04:10 PM 54.0°F12.2°C 44.4°F6.9°C 70% 8.1 mph SSW13.0 kmh SSW 16.1 mph25.9 kmh 29.78 in1008.5 mb - 0.00 in0.0 mm 0.01 in0.3 mm
04:20 PM 53.7°F12.1°C 44.9°F7.2°C 72% 12.7 mph S20.4 kmh S 24.2 mph38.9 kmh 29.78 in1008.5 mb - 0.00 in0.0 mm 0.01 in0.3 mm
04:30 PM 53.2°F11.8°C 44.4°F6.9°C 72% 11.5 mph SSW18.5 kmh SSW 16.1 mph25.9 kmh 29.77 in1008.1 mb - 0.00 in0.0 mm 0.01 in0.3 mm
04:40 PM 53.1°F11.7°C 44.3°F6.8°C 72% 10.4 mph SSW16.7 kmh SSW 19.6 mph31.5 kmh 29.77 in1008.1 mb - 0.00 in0.0 mm 0.01 in0.3 mm
04:50 PM 52.8°F11.6°C 44.7°F7.1°C 74% 9.2 mph SSW14.8 kmh SSW 12.7 mph20.4 kmh 29.77 in1008.1 mb - 0.00 in0.0 mm 0.01 in0.3 mm
05:00 PM 52.7°F11.5°C 44.6°F7.0°C 74% 11.5 mph SSW18.5 kmh SSW 13.8 mph22.2 kmh 29.77 in1008.1 mb - 0.00 in0.0 mm 0.01 in0.3 mm
05:10 PM 52.6°F11.4°C 44.6°F7.0°C 74% 16.1 mph S25.9 kmh S 24.2 mph38.9 kmh 29.77 in1008.1 mb - 0.00 in0.0 mm 0.01 in0.3 mm
05:20 PM 52.5°F11.4°C 44.8°F7.1°C 75% 10.4 mph S16.7 kmh S 16.1 mph25.9 kmh 29.76 in1007.8 mb - 0.00 in0.0 mm 0.01 in0.3 mm
05:30 PM 52.3°F11.3°C 45.3°F7.4°C 77% 8.1 mph S13.0 kmh S 11.5 mph18.5 kmh 29.76 in1007.8 mb - 0.00 in0.0 mm 0.01 in0.3 mm
05:40 PM 51.9°F11.1°C 44.9°F7.2°C 77% 10.4 mph SSW16.7 kmh SSW 21.9 mph35.2 kmh 29.76 in1007.8 mb - 0.00 in0.0 mm 0.01 in0.3 mm
05:50 PM 51.5°F10.8°C 44.9°F7.2°C 78% 10.4 mph S16.7 kmh S 18.4 mph29.6 kmh 29.76 in1007.8 mb - 0.00 in0.0 mm 0.01 in0.3 mm
06:00 PM 51.1°F10.6°C 45.1°F7.3°C 80% 12.7 mph SSW20.4 kmh SSW 19.6 mph31.5 kmh 29.75 in1007.5 mb - 0.00 in0.0 mm 0.01 in0.3 mm
06:10 PM 50.9°F10.5°C 44.9°F7.2°C 80% 11.5 mph SSW18.5 kmh SSW 18.4 mph29.6 kmh 29.75 in1007.5 mb - 0.00 in0.0 mm 0.01 in0.3 mm
06:20 PM 50.8°F10.4°C 45.2°F7.3°C 81% 6.9 mph S11.1 kmh S 15.0 mph24.1 kmh 29.75 in1007.5 mb - 0.00 in0.0 mm 0.01 in0.3 mm
06:40 PM 50.6°F10.3°C 45.3°F7.4°C 82% 11.5 mph S18.5 kmh S 19.6 mph31.5 kmh 29.75 in1007.5 mb - 0.00 in0.0 mm 0.01 in0.3 mm
06:50 PM 50.6°F10.3°C 45.3°F7.4°C 82% 10.4 mph S16.7 kmh S 19.6 mph31.5 kmh 29.75 in1007.5 mb - 0.00 in0.0 mm 0.01 in0.3 mm
07:00 PM 50.5°F10.3°C 45.2°F7.3°C 82% 9.2 mph S14.8 kmh S 12.7 mph20.4 kmh 29.75 in1007.5 mb - 0.00 in0.0 mm 0.01 in0.3 mm
07:10 PM 50.4°F10.2°C 45.1°F7.3°C 82% 8.1 mph S13.0 kmh S 11.5 mph18.5 kmh 29.75 in1007.5 mb - 0.00 in0.0 mm 0.01 in0.3 mm
07:20 PM 50.3°F10.2°C 44.7°F7.1°C 81% 9.2 mph SSW14.8 kmh SSW 18.4 mph29.6 kmh 29.75 in1007.5 mb - 0.00 in0.0 mm 0.01 in0.3 mm
07:30 PM 50.2°F10.1°C 44.9°F7.2°C 82% 4.6 mph SSW7.4 kmh SSW 9.2 mph14.8 kmh 29.74 in1007.1 mb - 0.00 in0.0 mm 0.01 in0.3 mm
07:40 PM 50.1°F10.1°C 44.8°F7.1°C 82% 9.2 mph S14.8 kmh S 12.7 mph20.4 kmh 29.74 in1007.1 mb - 0.00 in0.0 mm 0.01 in0.3 mm
07:50 PM 50.0°F10.0°C 44.8°F7.1°C 82% 9.2 mph S14.8 kmh S 16.1 mph25.9 kmh 29.74 in1007.1 mb - 0.00 in0.0 mm 0.01 in0.3 mm
08:00 PM 49.9°F9.9°C 44.3°F6.8°C 81% 6.9 mph SW11.1 kmh SW 16.1 mph25.9 kmh 29.75 in1007.5 mb - 0.00 in0.0 mm 0.01 in0.3 mm
08:10 PM 49.6°F9.8°C 43.7°F6.5°C 80% 11.5 mph SSW18.5 kmh SSW 13.8 mph22.2 kmh 29.74 in1007.1 mb - 0.00 in0.0 mm 0.01 in0.3 mm
08:20 PM 49.4°F9.7°C 44.5°F6.9°C 83% 11.5 mph S18.5 kmh S 16.1 mph25.9 kmh 29.74 in1007.1 mb - 0.00 in0.0 mm 0.01 in0.3 mm
08:40 PM 48.7°F9.3°C 44.0°F6.7°C 84% 11.5 mph S18.5 kmh S 16.1 mph25.9 kmh 29.73 in1006.8 mb - 0.00 in0.0 mm 0.01 in0.3 mm
08:50 PM 48.6°F9.2°C 44.0°F6.7°C 84% 9.2 mph S14.8 kmh S 15.0 mph24.1 kmh 29.73 in1006.8 mb - 0.01 in0.3 mm 0.02 in0.5 mm
09:00 PM 48.5°F9.2°C 44.5°F6.9°C 86% 9.2 mph S14.8 kmh S 18.4 mph29.6 kmh 29.73 in1006.8 mb - 0.00 in0.0 mm 0.02 in0.5 mm
09:10 PM 48.2°F9.0°C 44.5°F6.9°C 87% 11.5 mph S18.5 kmh S 16.1 mph25.9 kmh 29.73 in1006.8 mb - 0.00 in0.0 mm 0.02 in0.5 mm
09:20 PM 48.0°F8.9°C 44.6°F7.0°C 88% 10.4 mph SSW16.7 kmh SSW 12.7 mph20.4 kmh 29.73 in1006.8 mb - 0.00 in0.0 mm 0.02 in0.5 mm
09:30 PM 47.8°F8.8°C 44.4°F6.9°C 88% 10.4 mph S16.7 kmh S 18.4 mph29.6 kmh 29.73 in1006.8 mb - 0.01 in0.3 mm 0.02 in0.5 mm
09:40 PM 47.6°F8.7°C 44.5°F6.9°C 89% 12.7 mph S20.4 kmh S 19.6 mph31.5 kmh 29.72 in1006.4 mb - 0.00 in0.0 mm 0.02 in0.5 mm
09:50 PM 47.4°F8.6°C 44.6°F7.0°C 90% 8.1 mph SSW13.0 kmh SSW 13.8 mph22.2 kmh 29.72 in1006.4 mb - 0.00 in0.0 mm 0.02 in0.5 mm
10:00 PM 47.3°F8.5°C 44.5°F6.9°C 90% 9.2 mph S14.8 kmh S 20.7 mph33.3 kmh 29.72 in1006.4 mb - 0.01 in0.3 mm 0.03 in0.8 mm
10:10 PM 47.3°F8.5°C 44.5°F6.9°C 90% 9.2 mph SSW14.8 kmh SSW 16.1 mph25.9 kmh 29.71 in1006.1 mb - 0.00 in0.0 mm 0.03 in0.8 mm
10:20 PM 47.2°F8.4°C 44.7°F7.1°C 91% 10.4 mph S16.7 kmh S 13.8 mph22.2 kmh 29.71 in1006.1 mb - 0.00 in0.0 mm 0.03 in0.8 mm
10:30 PM 47.2°F8.4°C 44.7°F7.1°C 91% 9.2 mph S14.8 kmh S 18.4 mph29.6 kmh 29.70 in1005.8 mb - 0.00 in0.0 mm 0.03 in0.8 mm
10:40 PM 47.2°F8.4°C 44.7°F7.1°C 91% 9.2 mph S14.8 kmh S 16.1 mph25.9 kmh 29.70 in1005.8 mb - 0.00 in0.0 mm 0.03 in0.8 mm
10:50 PM 47.3°F8.5°C 44.8°F7.1°C 91% 10.4 mph S16.7 kmh S 19.6 mph31.5 kmh 29.70 in1005.8 mb - 0.00 in0.0 mm 0.03 in0.8 mm
11:00 PM 47.4°F8.6°C 44.9°F7.2°C 91% 11.5 mph S18.5 kmh S 23.0 mph37.0 kmh 29.70 in1005.8 mb - 0.00 in0.0 mm 0.04 in1.0 mm
11:10 PM 47.3°F8.5°C 44.8°F7.1°C 91% 12.7 mph S20.4 kmh S 24.2 mph38.9 kmh 29.70 in1005.8 mb - 0.00 in0.0 mm 0.04 in1.0 mm
11:30 PM 47.1°F8.4°C 44.6°F7.0°C 91% 9.2 mph S14.8 kmh S 13.8 mph22.2 kmh 29.69 in1005.4 mb - 0.00 in0.0 mm 0.04 in1.0 mm
11:40 PM 47.0°F8.3°C 44.8°F7.1°C 92% 9.2 mph S14.8 kmh S 19.6 mph31.5 kmh 29.69 in1005.4 mb - 0.00 in0.0 mm 0.04 in1.0 mm
11:50 PM 47.1°F8.4°C 44.9°F7.2°C 92% 11.5 mph S18.5 kmh S 15.0 mph24.1 kmh 29.69 in1005.4 mb - 0.00 in0.0 mm 0.04 in1.0 mm